Iowa Falls, IA (50126)

2:44 AM CST on January 18, 2017 (GMT -0600)
Henry Home | | Change Station

Elev 1129 ft 42.53 °N, 93.26 °W | Updated 8 seconds ago

Overcast
Overcast
29.3 °F
Feels Like 21 °F
N
9.8
Wind Variable Wind from SSW
Gusts 12.3 mph

Today
High -- | Low -- °F
--% Chance of Precip.
Yesterday
High -- | Low -- °F
Precip. -- in
Pressure 30.09 in
Visibility 7.0 miles
Clouds Overcast 500 ft
Windchill 21 °F
Dew Point 25 °F
Humidity 84%
Rainfall 0.00 in
Snow Depth Not available.
7:38 AM 5:09 PM
Waning Gibbous, 65% visible
METAR KIFA 180835Z AUTO 23007KT 7SM OVC005 M01/M01 A3009 RMK AO2 T10081013
Pressure 30.09 in
Visibility 7.0 miles
Clouds Overcast 500 ft
Windchill 21 °F
Dew Point 25 °F
Humidity 84%
Rainfall 0.00 in
Snow Depth Not available.
7:38 AM 5:09 PM
Waning Gibbous, 65% visible
METAR KIFA 180835Z AUTO 23007KT 7SM OVC005 M01/M01 A3009 RMK AO2 T10081013

Get Your Daily Forecast Email!

Thanks for signing up!

Be on the lookout for a verification email in your inbox.

You'll start receiving the daily forecast at 8 AM.

×

10-Day Weather Forecast

Almanac

Astronomy

Jan. 18, 2017 Rise Set
Actual Time
Civil Twilight
Nautical Twilight
Astronomical Twilight
Moon
Length of Visible Light
Length of Day
Tomorrow will be .
, % of the Moon is Illuminated

Today's Extremes

State Highs State Lows

Community

WunderPhotos

Upload Photos

1,962,540 photos uploaded!

WunderBlog® & News

Nearby

Air Quality

  Air Quality AQ Index Pollutant
Not available.

Snow Depth

Station Depth Elevation

Earthquake Activity

City Distance Mag. Time & Date
Minimum magnitude displayed is 2.5.

Coastal Water Temperatures

Place Temperature

Stations

Nearby Weather Stations

Station Location Temp. Windchill Dew Point Humidity Wind Precip. Elev Updated Type
                   

Watches & Warnings

There are currently no watches in effect.